MHTG/TGU METAR and TAF weather

Enter ICAO airport designator
Station Type Date Time Source
MHTG METAR 2019/04/21 22:00 UTC NOAA

MHTG 212200Z 03008KT 9999 BKN030 25/14 Q1019 A3009 NOSIG


Station Type Date Time Source
MHTG Decoded METAR 2019/04/21 22:00 UTC NOAA

Tegucigalpa, Honduras (MHTG) 14-03N 087-13W 1007M
Apr 21, 2019 - 06:00 PM EDT / 2019.04.21 2200 UTC
Wind: from the NNE (030 degrees) at 9 MPH (8 KT):0
Visibility: greater than 7 mile(s):0
Sky conditions: mostly cloudy
Temperature: 77 F (25 C)
Dew Point: 57 F (14 C)
Relative Humidity: 50%
Pressure (altimeter): 30.09 in. Hg (1018 hPa)
ob: MHTG 212200Z 03008KT 9999 BKN030 25/14 Q1019 A3009 NOSIG
cycle: 22

Station Type Date Time Source
MHTG TAF 2019/04/21 18:48 UTC NOAA

TAF MHTG 211645Z 2118/2218 04010KT 9999 BKN030TCU TX26/2119Z TN16/2212Z PROB30
TEMPO 2123/2205 02004KT 8000 VCSH
BECMG 2207/2209 9999 NSW FEW010 SCT024
BECMG 2212/2214 FEW028

Example: see airport list